sensor_id;sensor_type;location;lat;lon;timestamp;temperature;humidity
12156;DHT22;6141;49.092;8.516;2022-09-28T00:00:30;11.60;80.80
12156;DHT22;6141;49.092;8.516;2022-09-28T00:03:19;11.80;80.30
12156;DHT22;6141;49.092;8.516;2022-09-28T00:06:13;12.00;80.10
12156;DHT22;6141;49.092;8.516;2022-09-28T00:09:02;12.10;78.70
12156;DHT22;6141;49.092;8.516;2022-09-28T00:11:50;12.10;78.40
12156;DHT22;6141;49.092;8.516;2022-09-28T00:14:39;12.20;79.00
12156;DHT22;6141;49.092;8.516;2022-09-28T00:17:29;12.20;78.30
12156;DHT22;6141;49.092;8.516;2022-09-28T00:20:17;12.20;78.40
12156;DHT22;6141;49.092;8.516;2022-09-28T00:23:07;12.20;78.40
12156;DHT22;6141;49.092;8.516;2022-09-28T00:26:01;12.00;79.80
12156;DHT22;6141;49.092;8.516;2022-09-28T00:28:50;12.00;80.40
12156;DHT22;6141;49.092;8.516;2022-09-28T00:31:39;12.00;80.90
12156;DHT22;6141;49.092;8.516;2022-09-28T00:34:29;12.10;80.70
12156;DHT22;6141;49.092;8.516;2022-09-28T00:37:18;12.20;80.60
12156;DHT22;6141;49.092;8.516;2022-09-28T00:40:08;12.30;80.50
12156;DHT22;6141;49.092;8.516;2022-09-28T00:42:57;12.30;80.10
12156;DHT22;6141;49.092;8.516;2022-09-28T00:45:46;12.30;80.90
12156;DHT22;6141;49.092;8.516;2022-09-28T00:48:39;12.30;81.40
12156;DHT22;6141;49.092;8.516;2022-09-28T00:51:29;12.00;83.10
12156;DHT22;6141;49.092;8.516;2022-09-28T00:54:19;12.00;83.90
12156;DHT22;6141;49.092;8.516;2022-09-28T00:57:10;11.80;85.20
12156;DHT22;6141;49.092;8.516;2022-09-28T01:00:00;11.90;86.20
12156;DHT22;6141;49.092;8.516;2022-09-28T01:02:49;11.80;87.10
12156;DHT22;6141;49.092;8.516;2022-09-28T01:05:39;11.70;87.00
12156;DHT22;6141;49.092;8.516;2022-09-28T01:08:28;11.60;87.00
12156;DHT22;6141;49.092;8.516;2022-09-28T01:11:17;11.60;88.10
12156;DHT22;6141;49.092;8.516;2022-09-28T01:14:08;11.70;87.50
12156;DHT22;6141;49.092;8.516;2022-09-28T01:17:05;11.90;87.20
12156;DHT22;6141;49.092;8.516;2022-09-28T01:20:23;12.00;87.30
12156;DHT22;6141;49.092;8.516;2022-09-28T01:26:58;12.30;85.50
12156;DHT22;6141;49.092;8.516;2022-09-28T01:29:53;12.30;85.30
12156;DHT22;6141;49.092;8.516;2022-09-28T01:32:49;12.30;85.50
12156;DHT22;6141;49.092;8.516;2022-09-28T01:35:46;12.30;86.60
12156;DHT22;6141;49.092;8.516;2022-09-28T01:38:41;12.30;87.60
12156;DHT22;6141;49.092;8.516;2022-09-28T01:41:33;12.10;87.70
12156;DHT22;6141;49.092;8.516;2022-09-28T01:44:27;11.90;89.50
12156;DHT22;6141;49.092;8.516;2022-09-28T01:47:20;11.80;90.70
12156;DHT22;6141;49.092;8.516;2022-09-28T01:50:11;11.80;90.80
12156;DHT22;6141;49.092;8.516;2022-09-28T01:53:05;11.80;91.30
12156;DHT22;6141;49.092;8.516;2022-09-28T01:55:56;11.70;91.40
12156;DHT22;6141;49.092;8.516;2022-09-28T01:58:48;11.70;91.60
12156;DHT22;6141;49.092;8.516;2022-09-28T02:01:41;12.00;91.30
12156;DHT22;6141;49.092;8.516;2022-09-28T02:04:34;11.90;91.10
12156;DHT22;6141;49.092;8.516;2022-09-28T02:07:27;11.80;91.70
12156;DHT22;6141;49.092;8.516;2022-09-28T02:10:20;11.80;91.70
12156;DHT22;6141;49.092;8.516;2022-09-28T02:13:14;11.80;91.60
12156;DHT22;6141;49.092;8.516;2022-09-28T02:16:08;11.90;91.50
12156;DHT22;6141;49.092;8.516;2022-09-28T02:18:58;11.90;91.50
12156;DHT22;6141;49.092;8.516;2022-09-28T02:21:52;12.00;91.90
12156;DHT22;6141;49.092;8.516;2022-09-28T02:24:45;11.90;91.60
12156;DHT22;6141;49.092;8.516;2022-09-28T02:27:46;12.00;91.60
12156;DHT22;6141;49.092;8.516;2022-09-28T02:30:40;12.10;91.20
12156;DHT22;6141;49.092;8.516;2022-09-28T02:33:33;12.00;91.30
12156;DHT22;6141;49.092;8.516;2022-09-28T02:36:25;12.10;91.20
12156;DHT22;6141;49.092;8.516;2022-09-28T02:39:15;12.20;90.70
12156;DHT22;6141;49.092;8.516;2022-09-28T02:42:10;12.20;90.60
12156;DHT22;6141;49.092;8.516;2022-09-28T02:45:11;12.30;90.40
12156;DHT22;6141;49.092;8.516;2022-09-28T02:48:10;12.40;89.90
12156;DHT22;6141;49.092;8.516;2022-09-28T02:51:06;12.50;88.10
12156;DHT22;6141;49.092;8.516;2022-09-28T02:54:31;12.50;87.70
12156;DHT22;6141;49.092;8.516;2022-09-28T02:57:31;12.50;87.70
12156;DHT22;6141;49.092;8.516;2022-09-28T03:00:25;12.50;87.20
12156;DHT22;6141;49.092;8.516;2022-09-28T03:03:18;12.50;87.80
12156;DHT22;6141;49.092;8.516;2022-09-28T03:06:12;12.60;86.90
12156;DHT22;6141;49.092;8.516;2022-09-28T03:09:15;12.60;86.30
12156;DHT22;6141;49.092;8.516;2022-09-28T03:12:08;12.60;85.30
12156;DHT22;6141;49.092;8.516;2022-09-28T03:15:12;12.70;85.60
12156;DHT22;6141;49.092;8.516;2022-09-28T03:18:02;12.70;85.40
12156;DHT22;6141;49.092;8.516;2022-09-28T03:20:51;12.80;85.40
12156;DHT22;6141;49.092;8.516;2022-09-28T03:23:41;12.80;84.30
12156;DHT22;6141;49.092;8.516;2022-09-28T03:26:38;12.90;83.80
12156;DHT22;6141;49.092;8.516;2022-09-28T03:29:30;13.00;83.70
12156;DHT22;6141;49.092;8.516;2022-09-28T03:32:24;12.60;84.20
12156;DHT22;6141;49.092;8.516;2022-09-28T03:35:13;12.70;84.80
12156;DHT22;6141;49.092;8.516;2022-09-28T03:38:01;12.60;84.10
12156;DHT22;6141;49.092;8.516;2022-09-28T03:40:53;12.60;85.00
12156;DHT22;6141;49.092;8.516;2022-09-28T03:43:44;12.60;84.70
12156;DHT22;6141;49.092;8.516;2022-09-28T03:46:35;12.60;85.00
12156;DHT22;6141;49.092;8.516;2022-09-28T03:49:27;12.60;84.90
12156;DHT22;6141;49.092;8.516;2022-09-28T03:52:16;12.60;84.60
12156;DHT22;6141;49.092;8.516;2022-09-28T03:55:05;12.80;84.50
12156;DHT22;6141;49.092;8.516;2022-09-28T03:57:53;12.60;84.30
12156;DHT22;6141;49.092;8.516;2022-09-28T04:00:44;12.60;84.40
12156;DHT22;6141;49.092;8.516;2022-09-28T04:03:33;12.60;84.70
12156;DHT22;6141;49.092;8.516;2022-09-28T04:06:22;12.60;84.10
12156;DHT22;6141;49.092;8.516;2022-09-28T04:09:11;12.70;84.30
12156;DHT22;6141;49.092;8.516;2022-09-28T04:12:01;12.80;83.50
12156;DHT22;6141;49.092;8.516;2022-09-28T04:14:52;12.80;82.50
12156;DHT22;6141;49.092;8.516;2022-09-28T04:17:41;12.80;82.80
12156;DHT22;6141;49.092;8.516;2022-09-28T04:20:44;12.90;82.60
12156;DHT22;6141;49.092;8.516;2022-09-28T04:23:35;13.00;81.60
12156;DHT22;6141;49.092;8.516;2022-09-28T04:26:25;13.00;80.70
12156;DHT22;6141;49.092;8.516;2022-09-28T04:29:16;12.90;81.00
12156;DHT22;6141;49.092;8.516;2022-09-28T04:32:12;12.90;81.50
12156;DHT22;6141;49.092;8.516;2022-09-28T04:35:02;13.00;80.90
12156;DHT22;6141;49.092;8.516;2022-09-28T04:37:51;12.90;81.30
12156;DHT22;6141;49.092;8.516;2022-09-28T04:40:39;12.90;81.00
12156;DHT22;6141;49.092;8.516;2022-09-28T04:43:28;12.80;81.10
12156;DHT22;6141;49.092;8.516;2022-09-28T04:46:16;12.90;81.60
12156;DHT22;6141;49.092;8.516;2022-09-28T04:49:23;13.00;81.70
12156;DHT22;6141;49.092;8.516;2022-09-28T04:52:15;12.80;81.20
12156;DHT22;6141;49.092;8.516;2022-09-28T04:55:10;12.90;81.90
12156;DHT22;6141;49.092;8.516;2022-09-28T04:57:59;12.80;81.80
12156;DHT22;6141;49.092;8.516;2022-09-28T05:00:48;12.80;81.70
12156;DHT22;6141;49.092;8.516;2022-09-28T05:03:55;12.80;81.50
12156;DHT22;6141;49.092;8.516;2022-09-28T05:06:58;12.80;81.80
12156;DHT22;6141;49.092;8.516;2022-09-28T05:09:48;12.90;80.80
12156;DHT22;6141;49.092;8.516;2022-09-28T05:12:37;12.90;80.80
12156;DHT22;6141;49.092;8.516;2022-09-28T05:15:25;12.90;80.70
12156;DHT22;6141;49.092;8.516;2022-09-28T05:18:13;12.90;80.90
12156;DHT22;6141;49.092;8.516;2022-09-28T05:21:10;13.00;80.70
12156;DHT22;6141;49.092;8.516;2022-09-28T05:24:00;13.00;80.30
12156;DHT22;6141;49.092;8.516;2022-09-28T05:26:56;13.00;80.20
12156;DHT22;6141;49.092;8.516;2022-09-28T05:29:44;13.20;79.70
12156;DHT22;6141;49.092;8.516;2022-09-28T05:32:55;13.10;79.30
12156;DHT22;6141;49.092;8.516;2022-09-28T05:36:10;13.10;79.80
12156;DHT22;6141;49.092;8.516;2022-09-28T05:38:58;13.20;79.20
12156;DHT22;6141;49.092;8.516;2022-09-28T05:41:50;13.10;79.50
12156;DHT22;6141;49.092;8.516;2022-09-28T05:44:40;13.10;79.40
12156;DHT22;6141;49.092;8.516;2022-09-28T05:47:28;13.10;80.10
12156;DHT22;6141;49.092;8.516;2022-09-28T05:50:17;13.30;80.00
12156;DHT22;6141;49.092;8.516;2022-09-28T05:53:07;13.10;79.90
12156;DHT22;6141;49.092;8.516;2022-09-28T05:55:57;13.10;80.20
12156;DHT22;6141;49.092;8.516;2022-09-28T05:58:46;13.10;80.30
12156;DHT22;6141;49.092;8.516;2022-09-28T06:01:38;13.10;80.10
12156;DHT22;6141;49.092;8.516;2022-09-28T06:04:29;13.10;80.20
12156;DHT22;6141;49.092;8.516;2022-09-28T06:07:18;13.00;80.30
12156;DHT22;6141;49.092;8.516;2022-09-28T06:10:07;12.90;81.70
12156;DHT22;6141;49.092;8.516;2022-09-28T06:13:01;12.90;82.40
12156;DHT22;6141;49.092;8.516;2022-09-28T06:15:49;13.00;81.60
12156;DHT22;6141;49.092;8.516;2022-09-28T06:18:41;13.00;81.90
12156;DHT22;6141;49.092;8.516;2022-09-28T06:21:30;12.90;82.50
12156;DHT22;6141;49.092;8.516;2022-09-28T06:24:19;12.90;82.60
12156;DHT22;6141;49.092;8.516;2022-09-28T06:27:08;12.80;82.60
12156;DHT22;6141;49.092;8.516;2022-09-28T06:29:56;12.80;83.30
12156;DHT22;6141;49.092;8.516;2022-09-28T06:32:47;12.90;83.00
12156;DHT22;6141;49.092;8.516;2022-09-28T06:35:37;12.90;82.80
12156;DHT22;6141;49.092;8.516;2022-09-28T06:38:26;12.90;83.10
12156;DHT22;6141;49.092;8.516;2022-09-28T06:41:14;12.80;83.10
12156;DHT22;6141;49.092;8.516;2022-09-28T06:44:04;12.80;83.50
12156;DHT22;6141;49.092;8.516;2022-09-28T06:47:25;13.10;83.10
12156;DHT22;6141;49.092;8.516;2022-09-28T06:50:23;13.00;83.20
12156;DHT22;6141;49.092;8.516;2022-09-28T06:53:28;12.90;84.40
12156;DHT22;6141;49.092;8.516;2022-09-28T06:56:34;13.00;84.90
12156;DHT22;6141;49.092;8.516;2022-09-28T06:59:23;13.00;84.50
12156;DHT22;6141;49.092;8.516;2022-09-28T07:02:12;13.00;82.70
12156;DHT22;6141;49.092;8.516;2022-09-28T07:05:17;13.00;84.70
12156;DHT22;6141;49.092;8.516;2022-09-28T07:08:36;13.10;84.40
12156;DHT22;6141;49.092;8.516;2022-09-28T07:12:00;13.40;83.40
12156;DHT22;6141;49.092;8.516;2022-09-28T07:15:01;13.60;83.70
12156;DHT22;6141;49.092;8.516;2022-09-28T07:17:56;13.70;82.60
12156;DHT22;6141;49.092;8.516;2022-09-28T07:20:49;13.90;81.20
12156;DHT22;6141;49.092;8.516;2022-09-28T07:23:42;13.90;79.80
12156;DHT22;6141;49.092;8.516;2022-09-28T07:26:43;13.90;79.80
12156;DHT22;6141;49.092;8.516;2022-09-28T07:29:46;14.10;78.90
12156;DHT22;6141;49.092;8.516;2022-09-28T07:33:01;14.30;75.70
12156;DHT22;6141;49.092;8.516;2022-09-28T07:36:03;14.00;78.50
12156;DHT22;6141;49.092;8.516;2022-09-28T07:38:55;14.00;78.50
12156;DHT22;6141;49.092;8.516;2022-09-28T07:41:45;14.10;78.30
12156;DHT22;6141;49.092;8.516;2022-09-28T07:44:34;14.10;77.90
12156;DHT22;6141;49.092;8.516;2022-09-28T07:47:29;14.00;77.50
12156;DHT22;6141;49.092;8.516;2022-09-28T07:50:47;14.20;77.30
12156;DHT22;6141;49.092;8.516;2022-09-28T07:53:46;14.40;75.50
12156;DHT22;6141;49.092;8.516;2022-09-28T07:56:59;14.60;74.50
12156;DHT22;6141;49.092;8.516;2022-09-28T07:59:56;14.80;74.50
12156;DHT22;6141;49.092;8.516;2022-09-28T08:03:00;14.90;74.90
12156;DHT22;6141;49.092;8.516;2022-09-28T08:05:55;14.70;72.10
12156;DHT22;6141;49.092;8.516;2022-09-28T08:08:44;14.70;74.80
12156;DHT22;6141;49.092;8.516;2022-09-28T08:11:35;15.00;73.40
12156;DHT22;6141;49.092;8.516;2022-09-28T08:14:49;14.70;71.40
12156;DHT22;6141;49.092;8.516;2022-09-28T08:17:57;14.60;70.20
12156;DHT22;6141;49.092;8.516;2022-09-28T08:20:53;14.60;71.00
12156;DHT22;6141;49.092;8.516;2022-09-28T08:24:00;14.40;70.80
12156;DHT22;6141;49.092;8.516;2022-09-28T08:26:49;14.40;70.80
12156;DHT22;6141;49.092;8.516;2022-09-28T08:30:03;14.30;73.00
12156;DHT22;6141;49.092;8.516;2022-09-28T08:33:18;14.20;70.70
12156;DHT22;6141;49.092;8.516;2022-09-28T08:36:26;14.00;70.50
12156;DHT22;6141;49.092;8.516;2022-09-28T08:39:37;13.90;73.80
12156;DHT22;6141;49.092;8.516;2022-09-28T08:42:55;14.00;69.10
12156;DHT22;6141;49.092;8.516;2022-09-28T08:46:10;14.10;72.90
12156;DHT22;6141;49.092;8.516;2022-09-28T08:49:34;13.70;71.50
12156;DHT22;6141;49.092;8.516;2022-09-28T08:52:38;13.70;73.20
12156;DHT22;6141;49.092;8.516;2022-09-28T08:55:47;13.70;71.90
12156;DHT22;6141;49.092;8.516;2022-09-28T08:58:32;13.80;72.60
12156;DHT22;6141;49.092;8.516;2022-09-28T09:01:02;14.00;71.10
12156;DHT22;6141;49.092;8.516;2022-09-28T09:03:36;14.20;72.60
12156;DHT22;6141;49.092;8.516;2022-09-28T09:09:47;14.20;68.40
12156;DHT22;6141;49.092;8.516;2022-09-28T09:12:27;14.00;69.00
12156;DHT22;6141;49.092;8.516;2022-09-28T09:15:13;13.90;68.70
12156;DHT22;6141;49.092;8.516;2022-09-28T09:17:56;14.10;69.00
12156;DHT22;6141;49.092;8.516;2022-09-28T09:20:47;14.10;69.10
12156;DHT22;6141;49.092;8.516;2022-09-28T09:23:36;14.50;69.10
12156;DHT22;6141;49.092;8.516;2022-09-28T09:26:12;14.70;68.90
12156;DHT22;6141;49.092;8.516;2022-09-28T09:29:16;14.80;68.50
12156;DHT22;6141;49.092;8.516;2022-09-28T09:32:06;14.70;69.00
12156;DHT22;6141;49.092;8.516;2022-09-28T09:34:48;14.60;71.00
12156;DHT22;6141;49.092;8.516;2022-09-28T09:38:02;14.80;72.30
12156;DHT22;6141;49.092;8.516;2022-09-28T09:41:05;14.80;72.10
12156;DHT22;6141;49.092;8.516;2022-09-28T09:47:36;15.20;66.70
12156;DHT22;6141;49.092;8.516;2022-09-28T09:50:29;15.50;64.10
12156;DHT22;6141;49.092;8.516;2022-09-28T09:53:32;15.50;60.40
12156;DHT22;6141;49.092;8.516;2022-09-28T09:56:24;15.10;61.60
12156;DHT22;6141;49.092;8.516;2022-09-28T10:02:38;14.90;60.40
12156;DHT22;6141;49.092;8.516;2022-09-28T10:05:54;15.10;61.60
12156;DHT22;6141;49.092;8.516;2022-09-28T10:09:01;15.20;61.70
12156;DHT22;6141;49.092;8.516;2022-09-28T10:11:55;15.30;60.10
12156;DHT22;6141;49.092;8.516;2022-09-28T10:14:52;15.30;58.40
12156;DHT22;6141;49.092;8.516;2022-09-28T10:17:38;15.40;61.80
12156;DHT22;6141;49.092;8.516;2022-09-28T10:20:35;15.50;61.70
12156;DHT22;6141;49.092;8.516;2022-09-28T10:23:19;15.60;54.90
12156;DHT22;6141;49.092;8.516;2022-09-28T10:25:51;15.50;60.50
12156;DHT22;6141;49.092;8.516;2022-09-28T10:28:29;15.40;58.20
12156;DHT22;6141;49.092;8.516;2022-09-28T10:31:02;15.30;60.30
12156;DHT22;6141;49.092;8.516;2022-09-28T10:33:52;15.50;59.90
12156;DHT22;6141;49.092;8.516;2022-09-28T10:36:20;15.60;60.70
12156;DHT22;6141;49.092;8.516;2022-09-28T10:38:50;15.70;58.70
12156;DHT22;6141;49.092;8.516;2022-09-28T10:41:31;15.70;56.60
12156;DHT22;6141;49.092;8.516;2022-09-28T10:44:16;15.70;57.80
12156;DHT22;6141;49.092;8.516;2022-09-28T10:46:58;15.60;58.80
12156;DHT22;6141;49.092;8.516;2022-09-28T10:49:37;15.50;59.10
12156;DHT22;6141;49.092;8.516;2022-09-28T10:52:40;15.40;58.30
12156;DHT22;6141;49.092;8.516;2022-09-28T10:55:27;15.30;59.80
12156;DHT22;6141;49.092;8.516;2022-09-28T10:58:25;15.30;59.70
12156;DHT22;6141;49.092;8.516;2022-09-28T11:01:04;15.50;60.30
12156;DHT22;6141;49.092;8.516;2022-09-28T11:03:46;15.60;59.20
12156;DHT22;6141;49.092;8.516;2022-09-28T11:06:26;15.40;61.10
12156;DHT22;6141;49.092;8.516;2022-09-28T11:09:00;15.20;60.30
12156;DHT22;6141;49.092;8.516;2022-09-28T11:11:44;15.10;61.60
12156;DHT22;6141;49.092;8.516;2022-09-28T11:14:33;15.10;60.50
12156;DHT22;6141;49.092;8.516;2022-09-28T11:17:27;15.40;64.40
12156;DHT22;6141;49.092;8.516;2022-09-28T11:20:30;15.60;61.80
12156;DHT22;6141;49.092;8.516;2022-09-28T11:23:24;15.60;61.40
12156;DHT22;6141;49.092;8.516;2022-09-28T11:26:11;15.40;61.90
12156;DHT22;6141;49.092;8.516;2022-09-28T11:28:59;15.30;61.70
12156;DHT22;6141;49.092;8.516;2022-09-28T11:32:00;15.30;60.80
12156;DHT22;6141;49.092;8.516;2022-09-28T11:34:48;15.20;61.70
12156;DHT22;6141;49.092;8.516;2022-09-28T11:37:58;15.20;59.90
12156;DHT22;6141;49.092;8.516;2022-09-28T11:41:22;15.30;60.70
12156;DHT22;6141;49.092;8.516;2022-09-28T11:44:10;15.30;61.00
12156;DHT22;6141;49.092;8.516;2022-09-28T11:46:50;15.30;61.80
12156;DHT22;6141;49.092;8.516;2022-09-28T11:49:30;15.30;60.80
12156;DHT22;6141;49.092;8.516;2022-09-28T11:52:03;15.30;60.80
12156;DHT22;6141;49.092;8.516;2022-09-28T11:54:39;15.40;59.30
12156;DHT22;6141;49.092;8.516;2022-09-28T11:57:15;15.40;61.00
12156;DHT22;6141;49.092;8.516;2022-09-28T11:59:52;15.20;61.70
12156;DHT22;6141;49.092;8.516;2022-09-28T12:02:26;15.10;61.60
12156;DHT22;6141;49.092;8.516;2022-09-28T12:05:11;15.10;61.60
12156;DHT22;6141;49.092;8.516;2022-09-28T12:07:52;15.20;61.20
12156;DHT22;6141;49.092;8.516;2022-09-28T12:10:44;15.20;61.00
12156;DHT22;6141;49.092;8.516;2022-09-28T12:13:18;15.10;60.00
12156;DHT22;6141;49.092;8.516;2022-09-28T12:15:51;15.10;60.80
12156;DHT22;6141;49.092;8.516;2022-09-28T12:18:46;15.40;60.40
12156;DHT22;6141;49.092;8.516;2022-09-28T12:21:30;15.80;60.50
12156;DHT22;6141;49.092;8.516;2022-09-28T12:24:05;15.90;57.00
12156;DHT22;6141;49.092;8.516;2022-09-28T12:26:40;16.10;59.60
12156;DHT22;6141;49.092;8.516;2022-09-28T12:29:11;16.10;52.20
12156;DHT22;6141;49.092;8.516;2022-09-28T12:31:51;16.00;52.50
12156;DHT22;6141;49.092;8.516;2022-09-28T12:34:21;15.90;52.40
12156;DHT22;6141;49.092;8.516;2022-09-28T12:37:11;15.70;53.40
12156;DHT22;6141;49.092;8.516;2022-09-28T12:39:57;15.70;55.70
12156;DHT22;6141;49.092;8.516;2022-09-28T12:42:44;15.90;55.80
12156;DHT22;6141;49.092;8.516;2022-09-28T12:45:22;15.90;54.00
12156;DHT22;6141;49.092;8.516;2022-09-28T12:48:17;16.00;53.00
12156;DHT22;6141;49.092;8.516;2022-09-28T12:50:56;15.90;53.70
12156;DHT22;6141;49.092;8.516;2022-09-28T12:53:58;15.80;55.00
12156;DHT22;6141;49.092;8.516;2022-09-28T12:56:37;15.80;54.50
12156;DHT22;6141;49.092;8.516;2022-09-28T12:59:16;15.70;54.80
12156;DHT22;6141;49.092;8.516;2022-09-28T13:02:09;15.80;56.60
12156;DHT22;6141;49.092;8.516;2022-09-28T13:04:56;15.90;56.80
12156;DHT22;6141;49.092;8.516;2022-09-28T13:07:34;16.00;55.50
12156;DHT22;6141;49.092;8.516;2022-09-28T13:10:22;16.10;52.20
12156;DHT22;6141;49.092;8.516;2022-09-28T13:13:17;16.30;54.20
12156;DHT22;6141;49.092;8.516;2022-09-28T13:15:53;16.30;52.20
12156;DHT22;6141;49.092;8.516;2022-09-28T13:18:28;16.20;53.50
12156;DHT22;6141;49.092;8.516;2022-09-28T13:21:08;16.40;51.90
12156;DHT22;6141;49.092;8.516;2022-09-28T13:23:41;16.20;51.10
12156;DHT22;6141;49.092;8.516;2022-09-28T13:26:18;16.10;50.80
12156;DHT22;6141;49.092;8.516;2022-09-28T13:28:54;15.90;53.00
12156;DHT22;6141;49.092;8.516;2022-09-28T13:31:25;16.00;53.70
12156;DHT22;6141;49.092;8.516;2022-09-28T13:34:02;16.10;54.40
12156;DHT22;6141;49.092;8.516;2022-09-28T13:36:38;16.00;52.30
12156;DHT22;6141;49.092;8.516;2022-09-28T13:39:36;15.80;52.80
12156;DHT22;6141;49.092;8.516;2022-09-28T13:42:27;15.60;54.70
12156;DHT22;6141;49.092;8.516;2022-09-28T13:45:18;15.60;55.70
12156;DHT22;6141;49.092;8.516;2022-09-28T13:48:14;15.50;55.20
12156;DHT22;6141;49.092;8.516;2022-09-28T13:54:10;15.50;55.70
12156;DHT22;6141;49.092;8.516;2022-09-28T13:56:49;15.80;56.40
12156;DHT22;6141;49.092;8.516;2022-09-28T13:59:23;15.70;57.70
12156;DHT22;6141;49.092;8.516;2022-09-28T14:01:59;15.80;57.40
12156;DHT22;6141;49.092;8.516;2022-09-28T14:04:53;16.10;56.50
12156;DHT22;6141;49.092;8.516;2022-09-28T14:07:24;16.10;54.40
12156;DHT22;6141;49.092;8.516;2022-09-28T14:10:15;16.00;53.20
12156;DHT22;6141;49.092;8.516;2022-09-28T14:12:47;16.00;56.30
12156;DHT22;6141;49.092;8.516;2022-09-28T14:15:43;16.10;54.80
12156;DHT22;6141;49.092;8.516;2022-09-28T14:18:26;16.30;55.70
12156;DHT22;6141;49.092;8.516;2022-09-28T14:21:37;16.40;54.80
12156;DHT22;6141;49.092;8.516;2022-09-28T14:24:33;16.50;53.50
12156;DHT22;6141;49.092;8.516;2022-09-28T14:27:22;16.60;54.20
12156;DHT22;6141;49.092;8.516;2022-09-28T14:30:06;16.70;53.50
12156;DHT22;6141;49.092;8.516;2022-09-28T14:32:37;16.50;51.60
12156;DHT22;6141;49.092;8.516;2022-09-28T14:35:13;16.30;51.00
12156;DHT22;6141;49.092;8.516;2022-09-28T14:37:47;16.40;52.50
12156;DHT22;6141;49.092;8.516;2022-09-28T14:40:56;16.50;53.60
12156;DHT22;6141;49.092;8.516;2022-09-28T14:43:57;16.60;55.20
12156;DHT22;6141;49.092;8.516;2022-09-28T14:46:34;16.70;52.10
12156;DHT22;6141;49.092;8.516;2022-09-28T14:49:45;16.60;51.50
12156;DHT22;6141;49.092;8.516;2022-09-28T14:52:51;16.60;52.40
12156;DHT22;6141;49.092;8.516;2022-09-28T14:55:45;16.40;50.40
12156;DHT22;6141;49.092;8.516;2022-09-28T14:58:20;16.10;48.00
12156;DHT22;6141;49.092;8.516;2022-09-28T15:01:01;15.80;49.50
12156;DHT22;6141;49.092;8.516;2022-09-28T15:04:00;15.80;50.70
12156;DHT22;6141;49.092;8.516;2022-09-28T15:06:49;15.60;52.40
12156;DHT22;6141;49.092;8.516;2022-09-28T15:09:27;15.60;52.00
12156;DHT22;6141;49.092;8.516;2022-09-28T15:12:01;15.80;51.70
12156;DHT22;6141;49.092;8.516;2022-09-28T15:14:33;16.00;50.80
12156;DHT22;6141;49.092;8.516;2022-09-28T15:17:27;16.10;50.80
12156;DHT22;6141;49.092;8.516;2022-09-28T15:20:22;15.90;50.60
12156;DHT22;6141;49.092;8.516;2022-09-28T15:22:57;16.10;50.80
12156;DHT22;6141;49.092;8.516;2022-09-28T15:25:33;16.10;50.80
12156;DHT22;6141;49.092;8.516;2022-09-28T15:28:42;16.00;48.90
12156;DHT22;6141;49.092;8.516;2022-09-28T15:31:22;16.00;50.40
12156;DHT22;6141;49.092;8.516;2022-09-28T15:33:56;15.80;47.00
12156;DHT22;6141;49.092;8.516;2022-09-28T15:36:43;15.60;49.10
12156;DHT22;6141;49.092;8.516;2022-09-28T15:39:19;15.40;45.90
12156;DHT22;6141;49.092;8.516;2022-09-28T15:41:49;15.30;48.20
12156;DHT22;6141;49.092;8.516;2022-09-28T15:44:28;15.10;48.40
12156;DHT22;6141;49.092;8.516;2022-09-28T15:47:10;15.00;49.70
12156;DHT22;6141;49.092;8.516;2022-09-28T15:49:52;15.00;50.10
12156;DHT22;6141;49.092;8.516;2022-09-28T15:52:41;14.90;50.40
12156;DHT22;6141;49.092;8.516;2022-09-28T15:55:36;15.10;50.70
12156;DHT22;6141;49.092;8.516;2022-09-28T15:58:21;15.30;51.60
12156;DHT22;6141;49.092;8.516;2022-09-28T16:04:42;15.40;51.20
12156;DHT22;6141;49.092;8.516;2022-09-28T16:07:19;15.60;51.20
12156;DHT22;6141;49.092;8.516;2022-09-28T16:09:57;15.60;50.70
12156;DHT22;6141;49.092;8.516;2022-09-28T16:12:31;15.50;51.50
12156;DHT22;6141;49.092;8.516;2022-09-28T16:15:29;15.30;51.80
12156;DHT22;6141;49.092;8.516;2022-09-28T16:18:04;15.30;53.30
12156;DHT22;6141;49.092;8.516;2022-09-28T16:20:37;15.20;53.40
12156;DHT22;6141;49.092;8.516;2022-09-28T16:23:18;15.20;54.10
12156;DHT22;6141;49.092;8.516;2022-09-28T16:25:50;14.90;55.20
12156;DHT22;6141;49.092;8.516;2022-09-28T16:28:28;14.70;55.50
12156;DHT22;6141;49.092;8.516;2022-09-28T16:31:27;14.60;57.10
12156;DHT22;6141;49.092;8.516;2022-09-28T16:34:15;14.50;57.60
12156;DHT22;6141;49.092;8.516;2022-09-28T16:36:49;14.50;59.50
12156;DHT22;6141;49.092;8.516;2022-09-28T16:39:18;14.30;59.90
12156;DHT22;6141;49.092;8.516;2022-09-28T16:41:49;14.40;59.80
12156;DHT22;6141;49.092;8.516;2022-09-28T16:44:23;14.50;59.70
12156;DHT22;6141;49.092;8.516;2022-09-28T16:46:53;14.60;59.30
12156;DHT22;6141;49.092;8.516;2022-09-28T16:49:31;14.50;59.40
12156;DHT22;6141;49.092;8.516;2022-09-28T16:52:04;14.70;60.30
12156;DHT22;6141;49.092;8.516;2022-09-28T16:55:09;14.60;58.90
12156;DHT22;6141;49.092;8.516;2022-09-28T16:58:16;14.70;58.30
12156;DHT22;6141;49.092;8.516;2022-09-28T17:01:05;14.80;58.60
12156;DHT22;6141;49.092;8.516;2022-09-28T17:03:35;14.80;59.20
12156;DHT22;6141;49.092;8.516;2022-09-28T17:06:05;14.80;60.00
12156;DHT22;6141;49.092;8.516;2022-09-28T17:08:36;14.90;59.40
12156;DHT22;6141;49.092;8.516;2022-09-28T17:11:14;14.90;57.30
12156;DHT22;6141;49.092;8.516;2022-09-28T17:13:52;14.90;57.00
12156;DHT22;6141;49.092;8.516;2022-09-28T17:16:26;14.80;57.60
12156;DHT22;6141;49.092;8.516;2022-09-28T17:19:18;14.70;57.40
12156;DHT22;6141;49.092;8.516;2022-09-28T17:21:47;14.50;57.70
12156;DHT22;6141;49.092;8.516;2022-09-28T17:24:22;14.20;57.70
12156;DHT22;6141;49.092;8.516;2022-09-28T17:27:00;14.30;59.10
12156;DHT22;6141;49.092;8.516;2022-09-28T17:30:20;14.10;58.30
12156;DHT22;6141;49.092;8.516;2022-09-28T17:32:34;13.90;57.90
12156;DHT22;6141;49.092;8.516;2022-09-28T17:35:15;13.90;58.30
12156;DHT22;6141;49.092;8.516;2022-09-28T17:37:52;13.70;58.00
12156;DHT22;6141;49.092;8.516;2022-09-28T17:40:26;13.50;57.80
12156;DHT22;6141;49.092;8.516;2022-09-28T17:43:31;13.60;57.40
12156;DHT22;6141;49.092;8.516;2022-09-28T17:46:06;13.70;57.20
12156;DHT22;6141;49.092;8.516;2022-09-28T17:48:52;13.80;56.60
12156;DHT22;6141;49.092;8.516;2022-09-28T17:51:34;14.10;58.00
12156;DHT22;6141;49.092;8.516;2022-09-28T17:54:10;13.90;59.40
12156;DHT22;6141;49.092;8.516;2022-09-28T17:56:42;14.10;58.20
12156;DHT22;6141;49.092;8.516;2022-09-28T17:59:14;14.20;57.70
12156;DHT22;6141;49.092;8.516;2022-09-28T18:01:44;14.10;58.60
12156;DHT22;6141;49.092;8.516;2022-09-28T18:04:19;14.10;58.60
12156;DHT22;6141;49.092;8.516;2022-09-28T18:07:20;14.00;58.70
12156;DHT22;6141;49.092;8.516;2022-09-28T18:10:00;14.10;60.70
12156;DHT22;6141;49.092;8.516;2022-09-28T18:12:29;14.30;61.20
12156;DHT22;6141;49.092;8.516;2022-09-28T18:16:00;14.10;60.80
12156;DHT22;6141;49.092;8.516;2022-09-28T18:18:30;14.30;60.90
12156;DHT22;6141;49.092;8.516;2022-09-28T18:21:15;14.00;61.10
12156;DHT22;6141;49.092;8.516;2022-09-28T18:23:59;14.00;61.00
12156;DHT22;6141;49.092;8.516;2022-09-28T18:26:28;14.10;62.20